Time;durP1;ratioP1;P1;durP2;ratioP2;P2;SDS_P1;SDS_P2;PMS_P1;PMS_P2;Temp;Humidity;BMP_temperature;BMP_pressure;BME280_temperature;BME280_humidity;BME280_pressure;Samples;Min_cycle;Max_cycle;Signal;HPM_P1;HPM_P2
2021/05/09 00:01:02;;;;;;;3.85;0.90;;;12.20;74.90;;;;;;5098790;28;20055;-78
2021/05/09 00:03:31;;;;;;;2.25;1.02;;;12.20;74.70;;;;;;5099051;28;20027;-78
2021/05/09 00:05:58;;;;;;;1.80;0.93;;;12.20;74.80;;;;;;5118186;28;20020;-78
2021/05/09 00:08:27;;;;;;;2.55;0.60;;;12.20;74.70;;;;;;5117427;28;20038;-78
2021/05/09 00:10:54;;;;;;;2.85;0.80;;;12.20;75.20;;;;;;5099381;28;20031;-78
2021/05/09 00:13:22;;;;;;;3.17;0.77;;;12.20;75.30;;;;;;5118944;28;20095;-78
2021/05/09 00:15:51;;;;;;;3.67;0.93;;;12.10;75.50;;;;;;5103401;28;20019;-78
2021/05/09 00:18:19;;;;;;;2.45;0.90;;;12.10;75.50;;;;;;5103272;28;20020;-78
2021/05/09 00:20:46;;;;;;;2.75;1.00;;;12.10;75.60;;;;;;5102561;28;20028;-78
2021/05/09 00:23:14;;;;;;;1.83;0.85;;;12.10;75.80;;;;;;5102177;28;20024;-78
2021/05/09 00:25:41;;;;;;;4.00;1.17;;;12.10;75.80;;;;;;5120903;28;20028;-78
2021/05/09 00:28:09;;;;;;;2.47;1.45;;;12.10;75.90;;;;;;5120603;28;20031;-78
2021/05/09 00:30:37;;;;;;;1.90;0.77;;;12.10;76.10;;;;;;5098753;28;20078;-78
2021/05/09 00:33:04;;;;;;;3.83;1.30;;;12.00;76.20;;;;;;5100106;28;20029;-78
2021/05/09 00:35:32;;;;;;;3.83;1.10;;;12.00;76.60;;;;;;5098797;28;20028;-78
2021/05/09 00:37:59;;;;;;;3.08;1.02;;;12.00;76.40;;;;;;5098826;28;20026;-78
2021/05/09 00:40:27;;;;;;;3.30;0.80;;;12.00;76.60;;;;;;5099772;28;20024;-78
2021/05/09 00:42:58;;;;;;;2.05;0.90;;;12.00;76.90;;;;;;5100641;28;20016;-78
2021/05/09 00:45:26;;;;;;;1.67;0.82;;;12.00;76.90;;;;;;5099514;28;20043;-78
2021/05/09 00:47:53;;;;;;;1.70;0.90;;;12.00;77.00;;;;;;5099690;28;20366;-78
2021/05/09 00:50:21;;;;;;;1.95;1.13;;;11.90;77.10;;;;;;5099505;28;20028;-78
2021/05/09 00:52:50;;;;;;;3.78;1.00;;;11.90;77.50;;;;;;5099350;28;20016;-78
2021/05/09 00:55:19;;;;;;;2.45;1.15;;;11.80;77.50;;;;;;5100357;28;20044;-78
2021/05/09 00:57:47;;;;;;;3.72;0.90;;;11.80;78.30;;;;;;5099439;28;20054;-78
2021/05/09 01:00:16;;;;;;;2.70;1.02;;;11.80;77.70;;;;;;5098415;28;20054;-78
2021/05/09 01:02:45;;;;;;;2.63;1.20;;;11.80;78.00;;;;;;5099344;28;20327;-78
2021/05/09 01:05:13;;;;;;;4.32;1.70;;;11.80;78.80;;;;;;5099306;28;20324;-78
2021/05/09 01:07:41;;;;;;;2.88;0.88;;;11.70;78.30;;;;;;5099135;28;20046;-78
2021/05/09 01:10:11;;;;;;;1.75;0.90;;;11.70;78.40;;;;;;5099620;28;20028;-78
2021/05/09 01:12:39;;;;;;;1.40;0.80;;;11.70;78.50;;;;;;5099395;28;20031;-78
2021/05/09 01:15:07;;;;;;;4.30;1.20;;;11.70;78.50;;;;;;5099736;28;20020;-78
2021/05/09 01:17:35;;;;;;;4.60;1.27;;;11.70;78.60;;;;;;5099945;28;20025;-78
2021/05/09 01:20:11;;;;;;;3.42;1.13;;;11.60;78.80;;;;;;5098981;28;20020;-78
2021/05/09 01:22:39;;;;;;;5.18;1.15;;;11.60;78.90;;;;;;5098775;28;20020;-78
2021/05/09 01:25:07;;;;;;;2.08;0.90;;;11.50;79.00;;;;;;5099430;28;20028;-78
2021/05/09 01:27:36;;;;;;;2.67;0.90;;;11.50;79.60;;;;;;5099977;28;20305;-78
2021/05/09 01:30:05;;;;;;;3.63;1.25;;;11.40;79.70;;;;;;5098739;28;20022;-78
2021/05/09 01:32:33;;;;;;;3.53;1.25;;;11.40;79.90;;;;;;5099368;28;20123;-78
2021/05/09 01:35:01;;;;;;;2.83;0.93;;;11.40;80.20;;;;;;5099046;28;20115;-78
2021/05/09 01:37:30;;;;;;;1.65;1.00;;;11.30;80.30;;;;;;5098556;28;20016;-78
2021/05/09 01:39:58;;;;;;;4.57;1.00;;;11.30;81.00;;;;;;5098713;28;20289;-78
2021/05/09 01:42:25;;;;;;;2.13;1.02;;;11.30;81.20;;;;;;5098482;28;20054;-78
2021/05/09 01:44:57;;;;;;;3.38;1.00;;;11.20;81.50;;;;;;5097502;28;20020;-79
2021/05/09 01:47:26;;;;;;;4.63;0.90;;;11.20;81.70;;;;;;5097329;28;20024;-78
2021/05/09 01:49:54;;;;;;;1.27;0.80;;;11.10;82.00;;;;;;5097528;28;20024;-78
2021/05/09 01:52:21;;;;;;;2.30;1.20;;;11.10;82.10;;;;;;5098982;28;20028;-78
2021/05/09 01:54:49;;;;;;;3.15;1.27;;;11.10;82.60;;;;;;5098168;28;20024;-78
2021/05/09 01:57:16;;;;;;;2.03;1.00;;;11.00;83.00;;;;;;5099153;28;20420;-78
2021/05/09 01:59:44;;;;;;;4.60;1.05;;;11.00;83.30;;;;;;5099299;28;20016;-78
2021/05/09 02:02:12;;;;;;;3.75;1.60;;;11.00;83.50;;;;;;5098000;28;20032;-78
2021/05/09 02:04:39;;;;;;;2.75;1.10;;;10.90;84.00;;;;;;5099331;28;20077;-78
2021/05/09 02:07:07;;;;;;;2.30;1.08;;;10.90;83.90;;;;;;5099286;28;20439;-78
2021/05/09 02:09:35;;;;;;;2.58;1.05;;;10.90;84.10;;;;;;5097124;28;20032;-78
2021/05/09 02:12:03;;;;;;;3.63;1.27;;;10.90;84.40;;;;;;5098148;28;20020;-78
2021/05/09 02:14:31;;;;;;;2.40;1.08;;;10.80;84.60;;;;;;5097958;28;20023;-78
2021/05/09 02:16:58;;;;;;;2.28;1.15;;;10.80;84.80;;;;;;5097854;28;20016;-78
2021/05/09 02:19:25;;;;;;;2.53;1.02;;;10.70;85.30;;;;;;5098287;28;20095;-78
2021/05/09 02:21:53;;;;;;;3.20;1.23;;;10.70;85.50;;;;;;5096603;28;20031;-78
2021/05/09 02:24:21;;;;;;;1.83;1.08;;;10.70;86.20;;;;;;5096604;28;20051;-78
2021/05/09 02:26:48;;;;;;;4.15;1.40;;;10.60;86.40;;;;;;5098554;28;20412;-78
2021/05/09 02:29:16;;;;;;;2.85;1.27;;;10.60;86.70;;;;;;5097562;28;20442;-78
2021/05/09 02:31:43;;;;;;;1.55;0.98;;;10.50;87.00;;;;;;5097265;28;20052;-78
2021/05/09 02:34:11;;;;;;;4.85;1.20;;;10.50;87.50;;;;;;5097377;28;20027;-78
2021/05/09 02:36:39;;;;;;;2.80;1.25;;;10.40;87.80;;;;;;5096622;28;20020;-78
2021/05/09 02:39:06;;;;;;;2.97;1.27;;;10.40;87.80;;;;;;5097375;28;20100;-78
2021/05/09 02:41:34;;;;;;;1.83;0.93;;;10.40;88.20;;;;;;5098601;28;20297;-78
2021/05/09 02:44:02;;;;;;;4.22;1.92;;;10.40;88.70;;;;;;5097446;28;20016;-78
2021/05/09 02:46:30;;;;;;;3.08;1.42;;;10.40;88.80;;;;;;5096262;28;20093;-78
2021/05/09 02:49:01;;;;;;;2.05;1.00;;;10.30;88.90;;;;;;5096261;28;20439;-78
2021/05/09 02:51:29;;;;;;;3.40;1.23;;;10.30;89.10;;;;;;5096074;28;20024;-78
2021/05/09 02:53:57;;;;;;;3.15;1.50;;;10.30;89.40;;;;;;5097409;28;20427;-78
2021/05/09 02:56:24;;;;;;;2.55;1.33;;;10.30;89.60;;;;;;5096008;28;20032;-78
2021/05/09 02:58:52;;;;;;;2.45;1.08;;;10.20;90.00;;;;;;5097125;28;20365;-78
2021/05/09 03:01:19;;;;;;;3.33;1.50;;;10.20;90.00;;;;;;5097454;28;20024;-78
2021/05/09 03:03:47;;;;;;;4.30;1.35;;;10.20;90.10;;;;;;5097978;28;20020;-78
2021/05/09 03:06:15;;;;;;;4.03;1.20;;;10.20;90.10;;;;;;5097881;28;20038;-78
2021/05/09 03:08:42;;;;;;;2.05;0.98;;;10.20;90.20;;;;;;5097917;28;20020;-78
2021/05/09 03:11:10;;;;;;;3.45;1.30;;;10.20;90.20;;;;;;5096729;28;20035;-78
2021/05/09 03:13:38;;;;;;;3.97;1.45;;;10.20;90.30;;;;;;5096718;28;20020;-78
2021/05/09 03:16:06;;;;;;;3.65;1.25;;;10.30;90.30;;;;;;5098097;28;20316;-78
2021/05/09 03:18:34;;;;;;;5.55;1.40;;;10.30;90.40;;;;;;5095765;28;20367;-79
2021/05/09 03:21:01;;;;;;;4.63;1.13;;;10.20;90.60;;;;;;5097539;28;20028;-78
2021/05/09 03:23:29;;;;;;;2.70;1.23;;;10.20;90.50;;;;;;5096664;28;20028;-78
2021/05/09 03:25:57;;;;;;;3.78;1.15;;;10.20;90.60;;;;;;5095686;28;20081;-78
2021/05/09 03:28:25;;;;;;;4.50;1.63;;;10.20;90.70;;;;;;5096702;28;20032;-78
2021/05/09 03:30:53;;;;;;;2.28;1.27;;;10.10;91.00;;;;;;5102982;28;20046;-78
2021/05/09 03:33:21;;;;;;;3.45;1.38;;;10.10;91.00;;;;;;5116937;28;20024;-78
2021/05/09 03:35:49;;;;;;;3.20;1.17;;;10.10;91.20;;;;;;5099642;28;20430;-78
2021/05/09 03:38:18;;;;;;;3.45;1.30;;;9.90;91.60;;;;;;5118127;28;20072;-78
2021/05/09 03:40:45;;;;;;;1.85;1.00;;;9.90;91.40;;;;;;5099890;28;20020;-78
2021/05/09 03:43:12;;;;;;;3.75;1.23;;;9.90;91.70;;;;;;5099683;28;20043;-78
2021/05/09 03:45:40;;;;;;;4.60;2.00;;;9.90;91.90;;;;;;5118162;28;20020;-78
2021/05/09 03:48:08;;;;;;;2.47;1.20;;;9.90;92.00;;;;;;5120583;28;20073;-78
2021/05/09 03:50:36;;;;;;;2.53;1.27;;;9.90;92.20;;;;;;5122128;28;20023;-77
2021/05/09 03:53:03;;;;;;;2.85;1.02;;;9.90;92.30;;;;;;5121176;28;20408;-78
2021/05/09 03:55:31;;;;;;;3.10;1.20;;;9.90;92.60;;;;;;5121334;28;20027;-78
2021/05/09 03:57:58;;;;;;;4.20;1.30;;;10.00;92.60;;;;;;5102913;28;20027;-78
2021/05/09 04:00:26;;;;;;;4.35;1.50;;;10.00;92.60;;;;;;5121387;28;20020;-78
2021/05/09 04:02:54;;;;;;;5.00;1.77;;;10.00;92.60;;;;;;5120890;28;20019;-78
2021/05/09 04:05:22;;;;;;;6.10;1.13;;;10.10;92.80;;;;;;5121109;28;20012;-78
2021/05/09 04:07:49;;;;;;;5.13;1.70;;;10.10;92.70;;;;;;5120763;28;20069;-78
2021/05/09 04:10:17;;;;;;;3.88;1.60;;;10.20;92.70;;;;;;5121208;28;20158;-78
2021/05/09 04:12:45;;;;;;;2.20;1.33;;;10.30;92.80;;;;;;5103410;28;20050;-78
2021/05/09 04:15:12;;;;;;;4.95;1.55;;;10.30;93.00;;;;;;5103471;28;20083;-78
2021/05/09 04:17:40;;;;;;;2.80;1.00;;;10.30;93.00;;;;;;5121543;28;20030;-78
2021/05/09 04:20:08;;;;;;;2.08;1.23;;;10.40;93.00;;;;;;5103498;28;20023;-78
2021/05/09 04:22:35;;;;;;;5.15;1.30;;;10.40;93.10;;;;;;5121615;28;20024;-77
2021/05/09 04:25:03;;;;;;;2.72;1.10;;;10.50;93.10;;;;;;5104043;28;20027;-78
2021/05/09 04:27:30;;;;;;;2.58;1.20;;;10.50;93.10;;;;;;5121023;28;20024;-78
2021/05/09 04:29:58;;;;;;;3.50;1.55;;;10.60;93.10;;;;;;5120757;28;20024;-78
2021/05/09 04:32:26;;;;;;;3.72;1.17;;;10.60;93.30;;;;;;5119938;28;20108;-78
2021/05/09 04:34:54;;;;;;;2.65;1.42;;;10.60;93.40;;;;;;5102121;28;20315;-78
2021/05/09 04:37:21;;;;;;;3.55;1.48;;;10.60;93.70;;;;;;5120657;28;20016;-78
2021/05/09 04:39:49;;;;;;;2.30;1.10;;;10.60;93.90;;;;;;5102117;28;20435;-78
2021/05/09 04:42:17;;;;;;;2.53;1.25;;;10.60;94.10;;;;;;5120645;28;20024;-77
2021/05/09 04:44:45;;;;;;;3.63;1.10;;;10.60;94.30;;;;;;5120525;28;20058;-78
2021/05/09 04:47:13;;;;;;;3.28;1.50;;;10.60;94.10;;;;;;5120950;28;20125;-78
2021/05/09 04:49:41;;;;;;;1.63;0.93;;;10.60;93.90;;;;;;5121070;28;20064;-78
2021/05/09 04:52:10;;;;;;;2.08;1.02;;;10.70;93.80;;;;;;5102519;28;20024;-78
2021/05/09 04:54:38;;;;;;;2.63;1.30;;;10.70;93.70;;;;;;5102669;28;20016;-78
2021/05/09 04:57:06;;;;;;;2.47;1.08;;;10.80;93.80;;;;;;5120685;28;20332;-78
2021/05/09 04:59:33;;;;;;;2.50;1.30;;;10.80;93.70;;;;;;5120478;28;20057;-77
2021/05/09 05:02:01;;;;;;;4.13;1.80;;;10.80;93.60;;;;;;5120204;28;20034;-77
2021/05/09 05:04:28;;;;;;;3.60;1.40;;;10.90;93.70;;;;;;5119604;28;20016;-78
2021/05/09 05:06:56;;;;;;;5.97;1.30;;;10.90;93.40;;;;;;5101477;28;20057;-77
2021/05/09 05:09:24;;;;;;;2.17;1.25;;;10.90;93.50;;;;;;5120290;28;20439;-78
2021/05/09 05:11:53;;;;;;;2.55;1.13;;;11.00;93.20;;;;;;5119463;28;20058;-78
2021/05/09 05:14:21;;;;;;;2.15;1.35;;;11.10;93.00;;;;;;5119675;28;20073;-76
2021/05/09 05:16:48;;;;;;;3.20;1.25;;;11.20;92.70;;;;;;5119941;28;20054;-77
2021/05/09 05:19:16;;;;;;;2.65;0.98;;;11.30;92.50;;;;;;5119730;28;20024;-76
2021/05/09 05:21:43;;;;;;;3.35;1.17;;;11.40;92.30;;;;;;5119909;28;20019;-76
2021/05/09 05:24:11;;;;;;;2.72;1.33;;;11.50;92.00;;;;;;5120170;28;20435;-77
2021/05/09 05:26:39;;;;;;;2.00;1.00;;;11.60;91.90;;;;;;5120414;28;20080;-77
2021/05/09 05:29:06;;;;;;;4.68;1.15;;;11.70;91.90;;;;;;5120050;28;20020;-76
2021/05/09 05:31:34;;;;;;;2.25;1.10;;;11.90;91.50;;;;;;5098451;28;20406;-77
2021/05/09 05:34:02;;;;;;;2.67;1.33;;;12.00;91.30;;;;;;5098601;28;20048;-76
2021/05/09 05:36:33;;;;;;;2.75;1.08;;;12.10;91.00;;;;;;5099512;28;20050;-76
2021/05/09 05:39:01;;;;;;;2.63;1.20;;;12.20;90.80;;;;;;5097499;28;20051;-77
2021/05/09 05:41:29;;;;;;;2.85;1.05;;;12.40;90.60;;;;;;5098545;28;20076;-77
2021/05/09 05:43:56;;;;;;;2.58;1.20;;;12.50;90.10;;;;;;5098462;28;20059;-76
2021/05/09 05:46:30;;;;;;;2.10;1.10;;;12.70;89.80;;;;;;5099172;28;20052;-76
2021/05/09 05:48:58;;;;;;;2.50;1.25;;;12.80;89.20;;;;;;5098902;28;20418;-77
2021/05/09 05:51:26;;;;;;;2.38;1.25;;;12.90;88.40;;;;;;5098200;28;20051;-76
2021/05/09 05:53:57;;;;;;;2.78;0.95;;;13.10;87.50;;;;;;5098331;28;20412;-76
2021/05/09 05:56:26;;;;;;;2.45;0.90;;;13.20;87.30;;;;;;5099226;28;20024;-76
2021/05/09 05:58:54;;;;;;;2.28;1.20;;;13.30;86.40;;;;;;5098021;28;20320;-77
2021/05/09 06:01:21;;;;;;;3.55;1.23;;;13.40;86.00;;;;;;5099105;28;20065;-79
2021/05/09 06:03:49;;;;;;;3.15;1.00;;;13.50;85.60;;;;;;5099040;28;20309;-75
2021/05/09 06:06:17;;;;;;;2.58;1.40;;;13.70;84.80;;;;;;5099237;28;20020;-73
2021/05/09 06:08:46;;;;;;;5.35;0.98;;;13.80;84.20;;;;;;5097987;28;20114;-74
2021/05/09 06:11:14;;;;;;;3.58;1.20;;;13.90;84.00;;;;;;5097350;28;20035;-74
2021/05/09 06:13:41;;;;;;;3.38;1.27;;;14.00;83.50;;;;;;5096861;28;20016;-75
2021/05/09 06:16:09;;;;;;;2.40;1.30;;;14.10;82.90;;;;;;5098108;28;20027;-75
2021/05/09 06:18:37;;;;;;;2.30;1.20;;;14.20;82.20;;;;;;5098531;28;20070;-76
2021/05/09 06:21:05;;;;;;;3.60;1.05;;;14.30;81.70;;;;;;5096615;28;20028;-75
2021/05/09 06:23:32;;;;;;;3.38;0.90;;;14.40;81.50;;;;;;5097675;28;20020;-73
2021/05/09 06:26:01;;;;;;;1.90;1.23;;;14.50;80.80;;;;;;5097671;28;20023;-75
2021/05/09 06:28:28;;;;;;;2.45;1.10;;;14.50;80.40;;;;;;5096548;28;20020;-75
2021/05/09 06:30:55;;;;;;;2.50;1.38;;;14.60;80.40;;;;;;5104838;28;20070;-75
2021/05/09 06:33:23;;;;;;;2.25;0.90;;;14.70;80.60;;;;;;5100751;28;20023;-75
2021/05/09 06:35:52;;;;;;;2.50;1.02;;;14.70;80.90;;;;;;5119102;28;20308;-74
2021/05/09 06:38:20;;;;;;;4.18;1.10;;;14.80;80.20;;;;;;5118713;28;20018;-74
2021/05/09 06:40:47;;;;;;;2.67;0.88;;;14.90;80.60;;;;;;5119006;28;20020;-74
2021/05/09 06:43:14;;;;;;;2.20;0.80;;;14.90;80.60;;;;;;5119131;28;20039;-73
2021/05/09 06:45:44;;;;;;;2.42;1.10;;;15.00;79.60;;;;;;5118594;28;20020;-75
2021/05/09 06:48:11;;;;;;;2.63;0.98;;;15.10;80.00;;;;;;5117583;28;20027;-76
2021/05/09 06:50:39;;;;;;;2.83;1.00;;;15.20;79.70;;;;;;5099390;28;20122;-75
2021/05/09 06:53:07;;;;;;;1.77;0.90;;;15.20;79.70;;;;;;5099357;28;20300;-76
2021/05/09 06:55:36;;;;;;;1.45;0.85;;;15.30;80.40;;;;;;5117667;28;20020;-75
2021/05/09 06:58:07;;;;;;;2.03;0.80;;;15.40;79.90;;;;;;5117765;28;20473;-77
2021/05/09 07:00:35;;;;;;;2.75;0.80;;;15.50;78.80;;;;;;5099330;28;20034;-76
2021/05/09 07:03:02;;;;;;;2.67;1.13;;;15.70;78.70;;;;;;5099571;28;20358;-76
2021/05/09 07:05:30;;;;;;;2.15;0.90;;;15.80;78.80;;;;;;5118370;28;20431;-77
2021/05/09 07:07:58;;;;;;;1.48;0.80;;;15.80;78.60;;;;;;5118197;28;20027;-77
2021/05/09 07:10:28;;;;;;;3.08;1.00;;;15.80;78.70;;;;;;5118104;28;20099;-79
2021/05/09 07:12:55;;;;;;;3.00;0.85;;;15.90;78.90;;;;;;5118360;28;20020;-77
2021/05/09 07:15:29;;;;;;;2.92;1.13;;;15.90;79.40;;;;;;5118789;28;20023;-77
2021/05/09 07:18:14;;;;;;;3.40;0.98;;;16.00;79.00;;;;;;5100032;28;20036;-77
2021/05/09 07:20:50;;;;;;;2.42;1.30;;;16.10;77.50;;;;;;5117770;28;20015;-77
2021/05/09 07:23:18;;;;;;;3.70;0.90;;;16.10;78.20;;;;;;5116732;28;20099;-77
2021/05/09 07:25:46;;;;;;;3.10;0.98;;;16.20;77.90;;;;;;5117566;28;20099;-77
2021/05/09 07:28:16;;;;;;;2.45;0.98;;;16.20;78.30;;;;;;5098806;28;20019;-76
2021/05/09 07:30:45;;;;;;;2.22;1.00;;;16.30;77.30;;;;;;5116725;28;20431;-78
2021/05/09 07:33:15;;;;;;;1.85;0.82;;;16.40;76.80;;;;;;5099487;28;20117;-77
2021/05/09 07:35:44;;;;;;;2.20;0.77;;;16.50;76.70;;;;;;5117199;28;20024;-77
2021/05/09 07:38:13;;;;;;;1.25;0.70;;;16.60;77.00;;;;;;5116826;28;20023;-77
2021/05/09 07:40:40;;;;;;;1.42;0.68;;;16.60;76.20;;;;;;5099716;28;20026;-77
2021/05/09 07:43:08;;;;;;;3.42;1.02;;;16.70;75.60;;;;;;5117994;28;20020;-85
2021/05/09 07:45:36;;;;;;;1.67;0.80;;;16.80;76.70;;;;;;5118319;28;20028;-85
2021/05/09 07:48:04;;;;;;;2.55;0.90;;;16.80;76.50;;;;;;5099706;28;20020;-86
2021/05/09 07:50:33;;;;;;;3.35;0.95;;;16.90;77.30;;;;;;5118098;28;20020;-84
2021/05/09 07:53:00;;;;;;;3.58;1.00;;;17.00;76.40;;;;;;5117777;28;20326;-84
2021/05/09 07:55:29;;;;;;;3.13;1.17;;;17.10;75.80;;;;;;5118415;28;20083;-87
2021/05/09 07:57:58;;;;;;;2.15;0.90;;;17.20;75.90;;;;;;5098898;28;20024;-88
2021/05/09 08:00:26;;;;;;;2.00;0.90;;;17.20;76.20;;;;;;5098973;28;20428;-85
2021/05/09 08:02:54;;;;;;;2.13;0.90;;;17.30;76.20;;;;;;5098922;28;20020;-85
2021/05/09 08:05:23;;;;;;;1.85;0.90;;;17.40;75.80;;;;;;5099079;28;20024;-85
2021/05/09 08:07:56;;;;;;;2.38;0.80;;;17.50;73.60;;;;;;5117045;28;20039;-78
2021/05/09 08:10:27;;;;;;;3.13;0.90;;;17.60;74.20;;;;;;5098693;28;20419;-84
2021/05/09 08:12:56;;;;;;;5.10;1.02;;;17.70;74.40;;;;;;5116684;28;20153;-80
2021/05/09 08:15:24;;;;;;;1.00;0.60;;;17.80;74.60;;;;;;5117196;28;20023;-84
2021/05/09 08:21:15;;;;;;;1.33;0.75;;;18.00;74.00;;;;;;5117218;28;20046;-77
2021/05/09 08:23:44;;;;;;;2.00;0.85;;;18.10;73.60;;;;;;5117659;28;20106;-75
2021/05/09 08:26:12;;;;;;;2.42;1.00;;;18.20;72.70;;;;;;5118022;28;20026;-75
2021/05/09 08:28:42;;;;;;;2.88;1.05;;;18.40;72.80;;;;;;5117575;28;20102;-76
2021/05/09 08:31:15;;;;;;;2.42;0.93;;;18.40;72.40;;;;;;5117365;28;20035;-75
2021/05/09 08:33:44;;;;;;;1.73;0.82;;;18.50;71.10;;;;;;5117154;28;20024;-75
2021/05/09 08:36:12;;;;;;;2.00;1.00;;;18.60;71.60;;;;;;5102253;28;20022;-75
2021/05/09 08:38:40;;;;;;;2.67;1.00;;;18.70;70.80;;;;;;5120286;28;20016;-75
2021/05/09 08:41:08;;;;;;;1.27;0.75;;;18.70;71.50;;;;;;5120185;28;20412;-76
2021/05/09 08:43:37;;;;;;;1.52;0.80;;;18.80;71.30;;;;;;5120295;28;20037;-77
2021/05/09 08:46:10;;;;;;;1.42;0.90;;;18.90;72.30;;;;;;5102055;28;20404;-65
2021/05/09 08:48:38;;;;;;;1.42;0.75;;;19.00;70.40;;;;;;5120078;28;20085;-61
2021/05/09 08:51:06;;;;;;;4.10;1.10;;;19.10;71.60;;;;;;5120655;28;20028;-82
2021/05/09 08:53:43;;;;;;;1.90;1.15;;;19.20;72.30;;;;;;5103519;28;20441;-92
2021/05/09 14:46:04;;;;;;;2.53;1.10;;;35.50;37.80;;;;;;5826069;23;20184;-70
2021/05/09 14:48:32;;;;;;;4.95;1.30;;;35.80;37.30;;;;;;4998651;28;20027;-71
2021/05/09 14:50:59;;;;;;;2.42;1.35;;;35.90;37.20;;;;;;4998601;28;20027;-70
2021/05/09 14:53:27;;;;;;;3.25;1.27;;;36.10;38.00;;;;;;4997829;28;20033;-70
2021/05/09 15:23:26;;;;;;;3.00;1.17;;;33.70;40.10;;;;;;5115098;27;20413;-84
2021/05/09 15:26:05;;;;;;;2.75;1.08;;;31.40;42.50;;;;;;5094933;28;20096;-69
2021/05/09 15:28:33;;;;;;;4.03;1.30;;;31.00;42.20;;;;;;5095227;28;20035;-67
2021/05/09 15:31:00;;;;;;;2.67;1.08;;;30.90;42.60;;;;;;5093802;28;20330;-68
2021/05/09 15:33:28;;;;;;;6.25;1.15;;;30.90;42.80;;;;;;5074776;28;20036;-75
2021/05/09 15:35:56;;;;;;;3.92;1.08;;;30.80;43.20;;;;;;5074620;28;20305;-75
2021/05/09 15:38:23;;;;;;;4.18;1.13;;;30.80;41.70;;;;;;5074560;28;20328;-74
2021/05/09 15:40:51;;;;;;;2.75;1.20;;;30.70;42.10;;;;;;5074438;28;20366;-74
2021/05/09 15:43:19;;;;;;;2.80;1.33;;;30.70;42.50;;;;;;5074976;28;20444;-75
2021/05/09 15:45:48;;;;;;;2.63;1.23;;;30.70;42.60;;;;;;5074427;28;20074;-75
2021/05/09 15:48:16;;;;;;;1.98;1.15;;;30.70;42.60;;;;;;5074353;28;20025;-75
2021/05/09 15:50:44;;;;;;;4.20;1.00;;;30.70;42.60;;;;;;5073256;28;20025;-75
2021/05/09 15:53:12;;;;;;;6.13;1.00;;;30.70;42.00;;;;;;5073122;28;20024;-74
2021/05/09 15:55:40;;;;;;;2.88;1.55;;;30.70;41.60;;;;;;5074197;28;20024;-74
2021/05/09 15:58:08;;;;;;;2.92;1.85;;;30.90;41.70;;;;;;5074383;28;20116;-76
2021/05/09 16:00:35;;;;;;;2.95;1.27;;;31.00;41.20;;;;;;5074417;28;20039;-75
2021/05/09 16:03:03;;;;;;;1.63;1.10;;;31.40;41.80;;;;;;5074424;28;20028;-74
2021/05/09 16:05:30;;;;;;;3.67;1.00;;;31.80;40.80;;;;;;5074147;28;20375;-74
2021/05/09 16:07:58;;;;;;;2.95;1.20;;;32.20;40.40;;;;;;5074659;28;20331;-75
2021/05/09 16:10:25;;;;;;;2.95;1.20;;;32.70;39.40;;;;;;5072986;28;20025;-75
2021/05/09 16:12:57;;;;;;;5.72;1.10;;;33.10;39.20;;;;;;5072885;28;20024;-75
2021/05/09 16:15:27;;;;;;;2.65;1.10;;;33.60;38.90;;;;;;5074100;28;20020;-75
2021/05/09 16:17:58;;;;;;;7.45;1.30;;;34.10;38.00;;;;;;5073630;28;20024;-75
2021/05/09 16:20:26;;;;;;;2.00;1.00;;;34.60;38.30;;;;;;5073621;28;20017;-75
2021/05/09 16:22:54;;;;;;;5.05;1.30;;;35.10;36.70;;;;;;5073412;28;20041;-74
2021/05/09 16:25:21;;;;;;;3.95;1.20;;;35.10;36.20;;;;;;5072509;28;20044;-75
2021/05/09 16:27:49;;;;;;;2.50;1.40;;;35.30;36.30;;;;;;5074047;28;20020;-75
2021/05/09 16:30:18;;;;;;;1.77;1.20;;;35.60;36.20;;;;;;5073247;28;20020;-74
2021/05/09 16:32:49;;;;;;;2.33;1.35;;;36.00;35.20;;;;;;5070058;28;20036;-75
2021/05/09 16:35:18;;;;;;;2.58;1.48;;;36.30;35.30;;;;;;5060102;28;20029;-74
2021/05/09 16:37:45;;;;;;;3.65;1.30;;;36.70;35.10;;;;;;5060183;28;20044;-75
2021/05/09 16:40:13;;;;;;;4.40;1.35;;;37.10;34.80;;;;;;5060624;28;20336;-74
2021/05/09 16:42:41;;;;;;;2.13;1.30;;;37.40;33.60;;;;;;5060239;28;20020;-73
2021/05/09 16:45:09;;;;;;;2.45;1.48;;;37.40;34.00;;;;;;5060016;28;20075;-73
2021/05/09 16:47:38;;;;;;;1.95;1.30;;;37.50;34.00;;;;;;5060108;28;20027;-74
2021/05/09 16:50:09;;;;;;;4.00;1.20;;;37.70;33.00;;;;;;5059919;28;20028;-74
2021/05/09 16:52:37;;;;;;;4.32;1.23;;;37.60;32.80;;;;;;5060170;28;20021;-74
2021/05/09 16:55:08;;;;;;;6.47;1.48;;;37.50;32.90;;;;;;5059923;28;20031;-73
2021/05/09 16:57:36;;;;;;;2.03;1.17;;;37.30;33.10;;;;;;5060076;28;20017;-74
2021/05/09 17:00:07;;;;;;;6.05;1.30;;;37.10;32.90;;;;;;5058742;28;20115;-73
2021/05/09 17:02:34;;;;;;;4.43;1.30;;;36.90;34.10;;;;;;5059681;28;20049;-74
2021/05/09 17:05:03;;;;;;;2.58;1.40;;;36.70;33.50;;;;;;5059364;28;20346;-73
2021/05/09 17:07:31;;;;;;;3.83;1.27;;;36.40;33.80;;;;;;5060255;28;20060;-74
2021/05/09 17:09:59;;;;;;;1.90;1.10;;;36.10;33.30;;;;;;5059596;28;20020;-74
2021/05/09 17:12:28;;;;;;;3.90;1.30;;;35.50;34.20;;;;;;5060081;28;20098;-73
2021/05/09 17:15:01;;;;;;;5.13;1.20;;;35.30;34.70;;;;;;5059398;28;20059;-73
2021/05/09 17:17:29;;;;;;;4.32;1.23;;;35.20;34.60;;;;;;5058194;28;20024;-74
2021/05/09 17:19:56;;;;;;;3.33;1.38;;;35.20;35.00;;;;;;5058331;28;20025;-74
2021/05/09 17:22:24;;;;;;;3.38;1.00;;;35.20;35.40;;;;;;5059082;28;20049;-74
2021/05/09 17:24:55;;;;;;;2.10;1.00;;;35.10;35.00;;;;;;5058162;28;20047;-74
2021/05/09 17:27:24;;;;;;;2.85;1.00;;;34.90;35.80;;;;;;5059603;28;20013;-74
2021/05/09 17:29:51;;;;;;;2.88;1.55;;;34.50;36.00;;;;;;5059172;28;20035;-74
2021/05/09 17:32:19;;;;;;;2.10;1.23;;;34.00;37.20;;;;;;5059128;28;20024;-74
2021/05/09 17:34:47;;;;;;;3.45;0.93;;;33.50;38.00;;;;;;5057848;28;20328;-74
2021/05/09 17:37:20;;;;;;;24.40;2.40;;;32.90;38.10;;;;;;5058774;28;20139;-74
2021/05/09 17:39:48;;;;;;;4.75;1.08;;;32.30;37.60;;;;;;5057939;28;20052;-74
2021/05/09 17:42:16;;;;;;;5.75;1.95;;;31.50;38.30;;;;;;5057643;28;20032;-74
2021/05/09 17:44:44;;;;;;;2.22;1.00;;;30.80;39.50;;;;;;5057772;28;20027;-74
2021/05/09 17:47:13;;;;;;;3.25;1.05;;;30.10;40.30;;;;;;5059032;28;20040;-74
2021/05/09 17:49:40;;;;;;;4.78;1.17;;;29.60;40.10;;;;;;5058821;28;20451;-74
2021/05/09 17:52:08;;;;;;;3.72;1.52;;;29.20;40.60;;;;;;5059015;28;20359;-74
2021/05/09 17:54:36;;;;;;;4.93;1.20;;;29.00;40.30;;;;;;5059238;28;20067;-74
2021/05/09 17:57:04;;;;;;;2.30;1.45;;;29.10;40.50;;;;;;5058757;28;20051;-74
2021/05/09 17:59:34;;;;;;;1.88;1.02;;;29.30;40.30;;;;;;5057580;28;20025;-74
2021/05/09 18:02:03;;;;;;;4.03;0.93;;;29.40;40.60;;;;;;5058831;28;20063;-74
2021/05/09 18:04:32;;;;;;;2.70;1.00;;;29.60;40.40;;;;;;5057409;28;20017;-74
2021/05/09 18:07:00;;;;;;;1.40;0.98;;;29.80;40.00;;;;;;5058651;28;20021;-74
2021/05/09 18:09:29;;;;;;;2.03;1.35;;;30.00;40.10;;;;;;5057350;28;20025;-74
2021/05/09 18:11:58;;;;;;;1.65;1.00;;;30.10;40.30;;;;;;5058467;28;20021;-74
2021/05/09 18:14:27;;;;;;;2.63;1.15;;;30.20;39.90;;;;;;5058030;28;20025;-74
2021/05/09 18:17:08;;;;;;;3.65;1.88;;;30.00;39.90;;;;;;5058476;28;20408;-74
2021/05/09 18:22:35;;;;;;;;;;;29.30;40.20;;;;;;5058323;28;20064;-74
2021/05/09 18:25:05;;;;;;;1.70;1.10;;;28.80;40.90;;;;;;5057988;28;20217;-74
2021/05/09 18:27:33;;;;;;;1.90;1.02;;;28.30;41.70;;;;;;5058690;28;20017;-74
2021/05/09 18:30:00;;;;;;;2.50;0.90;;;28.00;42.20;;;;;;5058588;28;20014;-74
2021/05/09 18:32:28;;;;;;;3.90;0.88;;;27.60;42.60;;;;;;5058195;28;20020;-74
2021/05/09 18:34:55;;;;;;;3.60;1.00;;;27.30;43.40;;;;;;5056883;28;20031;-74
2021/05/09 18:37:24;;;;;;;3.45;1.35;;;27.00;44.00;;;;;;5057876;28;20024;-74
2021/05/09 18:39:51;;;;;;;3.67;1.10;;;26.70;44.30;;;;;;5057825;28;20021;-74
2021/05/09 18:42:19;;;;;;;2.60;1.50;;;26.40;44.90;;;;;;5056598;28;20048;-74
2021/05/09 18:44:47;;;;;;;4.22;0.90;;;26.20;45.50;;;;;;5056134;28;20048;-74
2021/05/09 18:47:16;;;;;;;1.67;1.10;;;25.90;45.90;;;;;;5057889;28;20403;-74
2021/05/09 18:49:45;;;;;;;2.30;1.23;;;25.70;46.10;;;;;;5058479;28;20103;-74
2021/05/09 18:52:13;;;;;;;6.35;1.05;;;25.50;46.10;;;;;;5058096;28;20029;-74
2021/05/09 18:54:41;;;;;;;2.25;1.13;;;25.40;46.30;;;;;;5057636;28;20082;-74
2021/05/09 18:57:08;;;;;;;1.90;1.02;;;25.30;47.20;;;;;;5056253;28;20404;-74
2021/05/09 18:59:36;;;;;;;2.28;1.30;;;25.10;47.80;;;;;;5056482;28;20116;-74
2021/05/09 19:02:04;;;;;;;2.58;1.08;;;24.90;48.70;;;;;;5056488;28;20404;-74
2021/05/09 19:04:32;;;;;;;2.97;1.20;;;24.80;48.40;;;;;;5057541;28;20017;-73
2021/05/09 19:07:05;;;;;;;2.00;1.10;;;24.60;48.90;;;;;;5058022;28;20025;-74
2021/05/09 19:09:34;;;;;;;1.98;1.00;;;24.40;49.60;;;;;;5058257;28;20032;-74
2021/05/09 19:12:03;;;;;;;3.53;0.88;;;24.30;49.40;;;;;;5057602;28;20083;-74
2021/05/09 19:14:30;;;;;;;5.88;1.40;;;24.10;49.60;;;;;;5056813;28;20028;-73
2021/05/09 19:16:58;;;;;;;2.47;0.98;;;24.00;49.10;;;;;;5057099;28;20048;-73